Terminal Aerodrome Forecast
Issued by NWS Sioux Falls, SD

Home | Current Version | Previous Version | Graphics & Text | Print | Product List | Glossary Off
Versions: 1 2 3 4 5 6 7 8 9 10 11 12 13 14 15 16 17 18 19 20 21 22 23 24 25 26

000
FTUS43 KFSD 010815 AAB
TAFFSD
TAF AMD
KFSD 010815Z 0108/0206 16011KT 6SM BR OVC007
     FM011700 27007KT P6SM BKN015
     FM011900 24006KT P6SM SCT040 BKN100
     FM020200 VRB03KT P6SM SCT050 BKN100=

USA.gov is the U.S. government's official web portal to all federal, state and local government web resources and services.